sensor_id;sensor_type;location;lat;lon;timestamp;pressure;altitude;pressure_sealevel;temperature
66372;BMP180;53168;51.146;17.120;2024-01-07T00:00:53;99944.60;;;-1.20
66372;BMP180;53168;51.146;17.120;2024-01-07T00:03:57;99945.20;;;-1.24
66372;BMP180;53168;51.146;17.120;2024-01-07T00:07:12;99941.00;;;-1.22
66372;BMP180;53168;51.146;17.120;2024-01-07T00:10:32;99943.60;;;-1.30
66372;BMP180;53168;51.146;17.120;2024-01-07T00:13:06;99950.20;;;-1.30
66372;BMP180;53168;51.146;17.120;2024-01-07T00:19:21;99942.80;;;-1.40
66372;BMP180;53168;51.146;17.120;2024-01-07T00:22:08;99939.60;;;-1.50
66372;BMP180;53168;51.146;17.120;2024-01-07T00:24:50;99940.80;;;-1.60
66372;BMP180;53168;51.146;17.120;2024-01-07T00:27:24;99939.80;;;-1.60
66372;BMP180;53168;51.146;17.120;2024-01-07T00:29:58;99940.40;;;-1.70
66372;BMP180;53168;51.146;17.120;2024-01-07T00:32:32;99945.20;;;-1.70
66372;BMP180;53168;51.146;17.120;2024-01-07T00:35:07;99951.00;;;-1.70
66372;BMP180;53168;51.146;17.120;2024-01-07T00:37:41;99951.80;;;-1.74
66372;BMP180;53168;51.146;17.120;2024-01-07T00:40:15;99951.80;;;-1.80
66372;BMP180;53168;51.146;17.120;2024-01-07T00:42:49;99952.80;;;-1.80
66372;BMP180;53168;51.146;17.120;2024-01-07T00:45:23;99953.60;;;-1.80
66372;BMP180;53168;51.146;17.120;2024-01-07T00:47:57;99953.80;;;-1.80
66372;BMP180;53168;51.146;17.120;2024-01-07T00:50:31;99949.20;;;-1.80
66372;BMP180;53168;51.146;17.120;2024-01-07T00:53:05;99949.00;;;-1.80
66372;BMP180;53168;51.146;17.120;2024-01-07T00:55:50;99945.60;;;-1.80
66372;BMP180;53168;51.146;17.120;2024-01-07T00:58:25;99952.40;;;-1.80
66372;BMP180;53168;51.146;17.120;2024-01-07T01:01:00;99950.40;;;-1.80
66372;BMP180;53168;51.146;17.120;2024-01-07T01:03:41;99951.80;;;-1.80
66372;BMP180;53168;51.146;17.120;2024-01-07T01:11:24;99952.80;;;-1.82
66372;BMP180;53168;51.146;17.120;2024-01-07T01:14:09;99958.60;;;-1.82
66372;BMP180;53168;51.146;17.120;2024-01-07T01:16:50;99959.60;;;-1.88
66372;BMP180;53168;51.146;17.120;2024-01-07T01:19:29;99965.60;;;-1.80
66372;BMP180;53168;51.146;17.120;2024-01-07T01:22:29;99965.80;;;-1.84
66372;BMP180;53168;51.146;17.120;2024-01-07T01:25:33;99967.20;;;-1.90
66372;BMP180;53168;51.146;17.120;2024-01-07T01:28:09;99966.00;;;-1.82
66372;BMP180;53168;51.146;17.120;2024-01-07T01:31:07;99963.40;;;-1.86
66372;BMP180;53168;51.146;17.120;2024-01-07T01:33:41;99969.00;;;-1.80
66372;BMP180;53168;51.146;17.120;2024-01-07T01:36:33;99971.80;;;-1.80
66372;BMP180;53168;51.146;17.120;2024-01-07T01:39:07;99970.40;;;-1.80
66372;BMP180;53168;51.146;17.120;2024-01-07T01:42:26;99973.20;;;-1.80
66372;BMP180;53168;51.146;17.120;2024-01-07T01:45:00;99975.00;;;-1.80
66372;BMP180;53168;51.146;17.120;2024-01-07T01:48:25;99975.80;;;-1.80
66372;BMP180;53168;51.146;17.120;2024-01-07T01:51:01;99976.80;;;-1.80
66372;BMP180;53168;51.146;17.120;2024-01-07T01:53:55;99984.20;;;-1.80
66372;BMP180;53168;51.146;17.120;2024-01-07T01:56:32;99978.20;;;-1.80
66372;BMP180;53168;51.146;17.120;2024-01-07T01:59:11;99989.20;;;-1.80
66372;BMP180;53168;51.146;17.120;2024-01-07T02:02:12;99987.00;;;-1.80
66372;BMP180;53168;51.146;17.120;2024-01-07T02:04:50;99984.40;;;-1.80
66372;BMP180;53168;51.146;17.120;2024-01-07T02:07:40;99981.20;;;-1.88
66372;BMP180;53168;51.146;17.120;2024-01-07T02:10:36;99979.80;;;-1.90
66372;BMP180;53168;51.146;17.120;2024-01-07T02:13:27;99980.80;;;-1.90
66372;BMP180;53168;51.146;17.120;2024-01-07T02:16:21;99984.80;;;-1.92
66372;BMP180;53168;51.146;17.120;2024-01-07T02:19:06;99981.20;;;-1.90
66372;BMP180;53168;51.146;17.120;2024-01-07T02:21:43;99982.60;;;-2.00
66372;BMP180;53168;51.146;17.120;2024-01-07T02:24:38;99979.60;;;-2.02
66372;BMP180;53168;51.146;17.120;2024-01-07T02:30:32;99979.00;;;-2.18
66372;BMP180;53168;51.146;17.120;2024-01-07T02:33:34;99984.40;;;-2.20
66372;BMP180;53168;51.146;17.120;2024-01-07T02:36:16;99990.60;;;-2.20
66372;BMP180;53168;51.146;17.120;2024-01-07T02:38:50;99994.00;;;-2.30
66372;BMP180;53168;51.146;17.120;2024-01-07T02:41:24;99994.20;;;-2.30
66372;BMP180;53168;51.146;17.120;2024-01-07T02:43:59;99992.20;;;-2.30
66372;BMP180;53168;51.146;17.120;2024-01-07T02:46:34;99989.00;;;-2.30
66372;BMP180;53168;51.146;17.120;2024-01-07T02:49:07;99990.00;;;-2.30
66372;BMP180;53168;51.146;17.120;2024-01-07T02:51:41;99994.00;;;-2.30
66372;BMP180;53168;51.146;17.120;2024-01-07T02:54:17;99992.80;;;-2.30
66372;BMP180;53168;51.146;17.120;2024-01-07T02:56:51;99992.60;;;-2.30
66372;BMP180;53168;51.146;17.120;2024-01-07T02:59:24;99993.60;;;-2.20
66372;BMP180;53168;51.146;17.120;2024-01-07T03:01:58;99997.60;;;-2.10
66372;BMP180;53168;51.146;17.120;2024-01-07T03:04:35;99996.20;;;-2.10
66372;BMP180;53168;51.146;17.120;2024-01-07T03:07:09;99998.20;;;-2.10
66372;BMP180;53168;51.146;17.120;2024-01-07T03:09:43;100002.00;;;-2.10
66372;BMP180;53168;51.146;17.120;2024-01-07T03:12:20;100000.80;;;-2.10
66372;BMP180;53168;51.146;17.120;2024-01-07T03:14:54;100002.80;;;-2.20
66372;BMP180;53168;51.146;17.120;2024-01-07T03:17:28;100002.20;;;-2.20
66372;BMP180;53168;51.146;17.120;2024-01-07T03:20:02;99998.40;;;-2.20
66372;BMP180;53168;51.146;17.120;2024-01-07T03:22:36;100006.20;;;-2.30
66372;BMP180;53168;51.146;17.120;2024-01-07T03:25:11;100001.40;;;-2.30
66372;BMP180;53168;51.146;17.120;2024-01-07T03:27:45;100003.20;;;-2.30
66372;BMP180;53168;51.146;17.120;2024-01-07T03:30:19;100000.40;;;-2.30
66372;BMP180;53168;51.146;17.120;2024-01-07T03:32:53;100000.20;;;-2.30
66372;BMP180;53168;51.146;17.120;2024-01-07T03:35:27;100006.00;;;-2.30
66372;BMP180;53168;51.146;17.120;2024-01-07T03:38:01;100009.00;;;-2.20
66372;BMP180;53168;51.146;17.120;2024-01-07T03:40:36;100011.60;;;-2.20
66372;BMP180;53168;51.146;17.120;2024-01-07T03:43:10;100012.20;;;-2.22
66372;BMP180;53168;51.146;17.120;2024-01-07T03:45:43;100013.00;;;-2.22
66372;BMP180;53168;51.146;17.120;2024-01-07T03:48:18;100017.00;;;-2.20
66372;BMP180;53168;51.146;17.120;2024-01-07T03:50:53;100014.20;;;-2.12
66372;BMP180;53168;51.146;17.120;2024-01-07T03:53:26;100021.80;;;-2.10
66372;BMP180;53168;51.146;17.120;2024-01-07T03:56:00;100023.00;;;-2.20
66372;BMP180;53168;51.146;17.120;2024-01-07T03:58:34;100022.40;;;-2.18
66372;BMP180;53168;51.146;17.120;2024-01-07T04:01:08;100023.00;;;-2.20
66372;BMP180;53168;51.146;17.120;2024-01-07T04:03:42;100023.20;;;-2.20
66372;BMP180;53168;51.146;17.120;2024-01-07T04:06:17;100027.40;;;-2.10
66372;BMP180;53168;51.146;17.120;2024-01-07T04:08:51;100026.20;;;-2.10
66372;BMP180;53168;51.146;17.120;2024-01-07T04:11:25;100027.40;;;-2.08
66372;BMP180;53168;51.146;17.120;2024-01-07T04:13:59;100031.20;;;-2.00
66372;BMP180;53168;51.146;17.120;2024-01-07T04:16:33;100031.60;;;-2.06
66372;BMP180;53168;51.146;17.120;2024-01-07T04:19:07;100034.00;;;-2.00
66372;BMP180;53168;51.146;17.120;2024-01-07T04:21:46;100043.80;;;-1.96
66372;BMP180;53168;51.146;17.120;2024-01-07T04:24:21;100051.20;;;-1.98
66372;BMP180;53168;51.146;17.120;2024-01-07T04:26:55;100053.60;;;-2.00
66372;BMP180;53168;51.146;17.120;2024-01-07T04:29:28;100050.80;;;-2.00
66372;BMP180;53168;51.146;17.120;2024-01-07T04:32:03;100047.40;;;-2.08
66372;BMP180;53168;51.146;17.120;2024-01-07T04:34:37;100047.80;;;-2.10
66372;BMP180;53168;51.146;17.120;2024-01-07T04:37:12;100049.80;;;-2.10
66372;BMP180;53168;51.146;17.120;2024-01-07T04:39:45;100051.60;;;-2.10
66372;BMP180;53168;51.146;17.120;2024-01-07T04:42:21;100051.40;;;-2.10
66372;BMP180;53168;51.146;17.120;2024-01-07T04:44:55;100053.60;;;-2.10
66372;BMP180;53168;51.146;17.120;2024-01-07T04:47:33;100064.00;;;-2.12
66372;BMP180;53168;51.146;17.120;2024-01-07T04:50:09;100064.20;;;-2.18
66372;BMP180;53168;51.146;17.120;2024-01-07T04:52:43;100064.60;;;-2.20
66372;BMP180;53168;51.146;17.120;2024-01-07T04:55:18;100071.20;;;-2.24
66372;BMP180;53168;51.146;17.120;2024-01-07T04:57:52;100075.00;;;-2.20
66372;BMP180;53168;51.146;17.120;2024-01-07T05:00:26;100077.80;;;-2.20
66372;BMP180;53168;51.146;17.120;2024-01-07T05:03:00;100078.60;;;-2.28
66372;BMP180;53168;51.146;17.120;2024-01-07T05:05:34;100083.40;;;-2.30
66372;BMP180;53168;51.146;17.120;2024-01-07T05:08:09;100081.00;;;-2.30
66372;BMP180;53168;51.146;17.120;2024-01-07T05:10:43;100087.20;;;-2.30
66372;BMP180;53168;51.146;17.120;2024-01-07T05:13:17;100093.80;;;-2.30
66372;BMP180;53168;51.146;17.120;2024-01-07T05:15:51;100090.40;;;-2.38
66372;BMP180;53168;51.146;17.120;2024-01-07T05:18:27;100095.40;;;-2.40
66372;BMP180;53168;51.146;17.120;2024-01-07T05:21:00;100097.00;;;-2.40
66372;BMP180;53168;51.146;17.120;2024-01-07T05:23:34;100096.20;;;-2.40
66372;BMP180;53168;51.146;17.120;2024-01-07T05:26:08;100105.60;;;-2.40
66372;BMP180;53168;51.146;17.120;2024-01-07T05:28:42;100112.00;;;-2.40
66372;BMP180;53168;51.146;17.120;2024-01-07T05:31:19;100112.00;;;-2.40
66372;BMP180;53168;51.146;17.120;2024-01-07T05:36:57;100116.60;;;-2.40
66372;BMP180;53168;51.146;17.120;2024-01-07T05:39:31;100120.80;;;-2.44
66372;BMP180;53168;51.146;17.120;2024-01-07T05:42:06;100116.60;;;-2.50
66372;BMP180;53168;51.146;17.120;2024-01-07T05:44:39;100118.20;;;-2.50
66372;BMP180;53168;51.146;17.120;2024-01-07T05:47:13;100120.80;;;-2.50
66372;BMP180;53168;51.146;17.120;2024-01-07T05:49:47;100126.00;;;-2.60
66372;BMP180;53168;51.146;17.120;2024-01-07T05:52:21;100119.60;;;-2.60
66372;BMP180;53168;51.146;17.120;2024-01-07T05:54:58;100117.60;;;-2.60
66372;BMP180;53168;51.146;17.120;2024-01-07T05:57:49;100118.20;;;-2.60
66372;BMP180;53168;51.146;17.120;2024-01-07T06:00:23;100117.00;;;-2.60
66372;BMP180;53168;51.146;17.120;2024-01-07T06:02:57;100121.20;;;-2.60
66372;BMP180;53168;51.146;17.120;2024-01-07T06:05:33;100128.20;;;-2.60
66372;BMP180;53168;51.146;17.120;2024-01-07T06:08:08;100128.40;;;-2.70
66372;BMP180;53168;51.146;17.120;2024-01-07T06:10:43;100130.40;;;-2.70
66372;BMP180;53168;51.146;17.120;2024-01-07T06:13:17;100134.40;;;-2.70
66372;BMP180;53168;51.146;17.120;2024-01-07T06:15:51;100132.80;;;-2.70
66372;BMP180;53168;51.146;17.120;2024-01-07T06:18:25;100133.00;;;-2.70
66372;BMP180;53168;51.146;17.120;2024-01-07T06:20:59;100137.60;;;-2.70
66372;BMP180;53168;51.146;17.120;2024-01-07T06:23:36;100145.40;;;-2.66
66372;BMP180;53168;51.146;17.120;2024-01-07T06:26:10;100147.00;;;-2.62
66372;BMP180;53168;51.146;17.120;2024-01-07T06:28:44;100146.60;;;-2.60
66372;BMP180;53168;51.146;17.120;2024-01-07T06:31:25;100149.20;;;-2.62
66372;BMP180;53168;51.146;17.120;2024-01-07T06:33:59;100152.00;;;-2.62
66372;BMP180;53168;51.146;17.120;2024-01-07T06:36:34;100150.80;;;-2.60
66372;BMP180;53168;51.146;17.120;2024-01-07T06:39:08;100153.00;;;-2.70
66372;BMP180;53168;51.146;17.120;2024-01-07T06:41:42;100164.20;;;-2.70
66372;BMP180;53168;51.146;17.120;2024-01-07T06:44:15;100171.80;;;-2.70
66372;BMP180;53168;51.146;17.120;2024-01-07T06:46:49;100174.60;;;-2.70
66372;BMP180;53168;51.146;17.120;2024-01-07T06:49:26;100180.40;;;-2.70
66372;BMP180;53168;51.146;17.120;2024-01-07T06:52:00;100184.60;;;-2.80
66372;BMP180;53168;51.146;17.120;2024-01-07T06:54:38;100181.80;;;-2.78
66372;BMP180;53168;51.146;17.120;2024-01-07T06:57:12;100179.40;;;-2.80
66372;BMP180;53168;51.146;17.120;2024-01-07T06:59:46;100190.60;;;-2.80
66372;BMP180;53168;51.146;17.120;2024-01-07T07:02:21;100204.20;;;-2.90
66372;BMP180;53168;51.146;17.120;2024-01-07T07:04:55;100201.60;;;-2.90
66372;BMP180;53168;51.146;17.120;2024-01-07T07:07:29;100203.20;;;-2.90
66372;BMP180;53168;51.146;17.120;2024-01-07T07:10:03;100197.00;;;-2.90
66372;BMP180;53168;51.146;17.120;2024-01-07T07:12:38;100201.00;;;-2.90
66372;BMP180;53168;51.146;17.120;2024-01-07T07:15:13;100204.60;;;-2.90
66372;BMP180;53168;51.146;17.120;2024-01-07T07:17:47;100211.60;;;-2.90
66372;BMP180;53168;51.146;17.120;2024-01-07T07:20:28;100211.80;;;-2.92
66372;BMP180;53168;51.146;17.120;2024-01-07T07:23:06;100216.00;;;-2.90
66372;BMP180;53168;51.146;17.120;2024-01-07T07:25:47;100215.20;;;-2.90
66372;BMP180;53168;51.146;17.120;2024-01-07T07:28:24;100217.20;;;-2.90
66372;BMP180;53168;51.146;17.120;2024-01-07T07:35:00;100221.80;;;-2.90
66372;BMP180;53168;51.146;17.120;2024-01-07T07:37:35;100222.00;;;-2.80
66372;BMP180;53168;51.146;17.120;2024-01-07T07:40:13;100222.40;;;-2.80
66372;BMP180;53168;51.146;17.120;2024-01-07T07:42:47;100215.40;;;-2.70
66372;BMP180;53168;51.146;17.120;2024-01-07T07:45:21;100217.60;;;-2.70
66372;BMP180;53168;51.146;17.120;2024-01-07T07:47:55;100221.60;;;-2.72
66372;BMP180;53168;51.146;17.120;2024-01-07T08:17:14;100250.20;;;-2.62
66372;BMP180;53168;51.146;17.120;2024-01-07T08:19:47;100247.60;;;-2.60
66372;BMP180;53168;51.146;17.120;2024-01-07T08:22:24;100249.80;;;-2.60
66372;BMP180;53168;51.146;17.120;2024-01-07T08:24:57;100250.20;;;-2.60
66372;BMP180;53168;51.146;17.120;2024-01-07T08:27:28;100251.00;;;-2.60
66372;BMP180;53168;51.146;17.120;2024-01-07T08:30:01;100250.20;;;-2.52
66372;BMP180;53168;51.146;17.120;2024-01-07T08:32:40;100255.20;;;-2.50
66372;BMP180;53168;51.146;17.120;2024-01-07T08:35:16;100259.40;;;-2.40
66372;BMP180;53168;51.146;17.120;2024-01-07T08:37:51;100261.00;;;-2.30
66372;BMP180;53168;51.146;17.120;2024-01-07T08:40:21;100263.20;;;-2.28
66372;BMP180;53168;51.146;17.120;2024-01-07T08:42:56;100268.40;;;-2.18
66372;BMP180;53168;51.146;17.120;2024-01-07T08:45:29;100267.00;;;-2.06
66372;BMP180;53168;51.146;17.120;2024-01-07T08:48:01;100265.40;;;-2.00
66372;BMP180;53168;51.146;17.120;2024-01-07T08:50:33;100272.60;;;-1.90
66372;BMP180;53168;51.146;17.120;2024-01-07T08:53:07;100270.00;;;-1.82
66372;BMP180;53168;51.146;17.120;2024-01-07T08:55:42;100279.40;;;-1.80
66372;BMP180;53168;51.146;17.120;2024-01-07T08:58:12;100273.00;;;-1.74
66372;BMP180;53168;51.146;17.120;2024-01-07T09:00:47;100275.20;;;-1.68
66372;BMP180;53168;51.146;17.120;2024-01-07T09:03:19;100274.60;;;-1.60
66372;BMP180;53168;51.146;17.120;2024-01-07T09:05:52;100275.60;;;-1.50
66372;BMP180;53168;51.146;17.120;2024-01-07T09:08:29;100277.40;;;-1.40
66372;BMP180;53168;51.146;17.120;2024-01-07T09:11:04;100285.20;;;-1.30
66372;BMP180;53168;51.146;17.120;2024-01-07T09:13:43;100286.20;;;-1.30
66372;BMP180;53168;51.146;17.120;2024-01-07T09:16:19;100285.80;;;-1.20
66372;BMP180;53168;51.146;17.120;2024-01-07T09:19:10;100288.00;;;-1.10
66372;BMP180;53168;51.146;17.120;2024-01-07T09:22:06;100289.60;;;-1.00
66372;BMP180;53168;51.146;17.120;2024-01-07T09:24:47;100290.80;;;-0.94
66372;BMP180;53168;51.146;17.120;2024-01-07T09:27:23;100292.60;;;-0.90
66372;BMP180;53168;51.146;17.120;2024-01-07T09:30:00;100300.20;;;-0.90
66372;BMP180;53168;51.146;17.120;2024-01-07T09:32:30;100299.00;;;-0.82
66372;BMP180;53168;51.146;17.120;2024-01-07T09:35:03;100296.80;;;-0.80
66372;BMP180;53168;51.146;17.120;2024-01-07T09:37:38;100301.60;;;-0.78
66372;BMP180;53168;51.146;17.120;2024-01-07T09:40:10;100296.60;;;-0.76
66372;BMP180;53168;51.146;17.120;2024-01-07T09:42:41;100292.20;;;-0.80
66372;BMP180;53168;51.146;17.120;2024-01-07T09:45:15;100293.20;;;-0.70
66372;BMP180;53168;51.146;17.120;2024-01-07T09:48:14;100292.80;;;-0.72
66372;BMP180;53168;51.146;17.120;2024-01-07T09:50:44;100296.00;;;-0.72
66372;BMP180;53168;51.146;17.120;2024-01-07T09:53:27;100296.80;;;-0.80
66372;BMP180;53168;51.146;17.120;2024-01-07T13:00:30;100341.80;;;-2.78
66372;BMP180;53168;51.146;17.120;2024-01-07T13:03:07;100345.60;;;-2.80
66372;BMP180;53168;51.146;17.120;2024-01-07T13:05:46;100348.20;;;-2.90
66372;BMP180;53168;51.146;17.120;2024-01-07T13:08:23;100350.40;;;-3.02
66372;BMP180;53168;51.146;17.120;2024-01-07T13:14:21;100348.60;;;-3.20
66372;BMP180;53168;51.146;17.120;2024-01-07T13:16:55;100351.80;;;-3.20
66372;BMP180;53168;51.146;17.120;2024-01-07T13:19:29;100358.20;;;-3.22
66372;BMP180;53168;51.146;17.120;2024-01-07T13:25:25;100369.00;;;-3.30
66372;BMP180;53168;51.146;17.120;2024-01-07T13:27:59;100379.60;;;-3.30
66372;BMP180;53168;51.146;17.120;2024-01-07T13:30:34;100380.00;;;-3.44
66372;BMP180;53168;51.146;17.120;2024-01-07T13:33:17;100378.20;;;-3.60
66372;BMP180;53168;51.146;17.120;2024-01-07T13:35:51;100382.80;;;-3.60
66372;BMP180;53168;51.146;17.120;2024-01-07T13:38:25;100382.40;;;-3.70
66372;BMP180;53168;51.146;17.120;2024-01-07T13:41:01;100388.20;;;-3.70
66372;BMP180;53168;51.146;17.120;2024-01-07T13:43:36;100394.00;;;-3.80
66372;BMP180;53168;51.146;17.120;2024-01-07T13:46:13;100394.60;;;-3.90
66372;BMP180;53168;51.146;17.120;2024-01-07T13:48:47;100397.00;;;-3.98
66372;BMP180;53168;51.146;17.120;2024-01-07T13:51:22;100394.80;;;-4.00
66372;BMP180;53168;51.146;17.120;2024-01-07T13:53:57;100393.00;;;-4.06
66372;BMP180;53168;51.146;17.120;2024-01-07T13:56:31;100401.20;;;-4.10
66372;BMP180;53168;51.146;17.120;2024-01-07T13:59:08;100404.00;;;-4.20
66372;BMP180;53168;51.146;17.120;2024-01-07T14:01:42;100406.60;;;-4.20
66372;BMP180;53168;51.146;17.120;2024-01-07T14:04:32;100406.00;;;-4.22
66372;BMP180;53168;51.146;17.120;2024-01-07T14:07:06;100410.40;;;-4.30
66372;BMP180;53168;51.146;17.120;2024-01-07T14:09:40;100406.60;;;-4.38
66372;BMP180;53168;51.146;17.120;2024-01-07T15:18:16;100463.40;;;-5.02
66372;BMP180;53168;51.146;17.120;2024-01-07T15:21:15;100472.20;;;-5.10
66372;BMP180;53168;51.146;17.120;2024-01-07T15:23:49;100478.80;;;-5.20
66372;BMP180;53168;51.146;17.120;2024-01-07T15:26:26;100483.20;;;-5.30
66372;BMP180;53168;51.146;17.120;2024-01-07T15:29:08;100488.40;;;-5.40
66372;BMP180;53168;51.146;17.120;2024-01-07T15:31:48;100490.80;;;-5.40
66372;BMP180;53168;51.146;17.120;2024-01-07T15:34:22;100493.40;;;-5.30
66372;BMP180;53168;51.146;17.120;2024-01-07T15:37:05;100493.00;;;-5.30
66372;BMP180;53168;51.146;17.120;2024-01-07T15:39:46;100497.00;;;-5.30
66372;BMP180;53168;51.146;17.120;2024-01-07T15:42:21;100496.40;;;-5.36
66372;BMP180;53168;51.146;17.120;2024-01-07T15:44:55;100508.80;;;-5.40
66372;BMP180;53168;51.146;17.120;2024-01-07T15:47:29;100496.20;;;-5.42
66372;BMP180;53168;51.146;17.120;2024-01-07T15:50:09;100506.20;;;-5.50
66372;BMP180;53168;51.146;17.120;2024-01-07T15:52:44;100500.00;;;-5.50
66372;BMP180;53168;51.146;17.120;2024-01-07T15:55:21;100504.00;;;-5.60
66372;BMP180;53168;51.146;17.120;2024-01-07T15:57:55;100500.60;;;-5.60
66372;BMP180;53168;51.146;17.120;2024-01-07T16:00:29;100509.00;;;-5.60
66372;BMP180;53168;51.146;17.120;2024-01-07T16:03:04;100511.20;;;-5.60
66372;BMP180;53168;51.146;17.120;2024-01-07T16:05:40;100519.00;;;-5.60
66372;BMP180;53168;51.146;17.120;2024-01-07T16:08:14;100520.40;;;-5.60
66372;BMP180;53168;51.146;17.120;2024-01-07T16:10:53;100518.20;;;-5.52
66372;BMP180;53168;51.146;17.120;2024-01-07T16:13:27;100528.20;;;-5.50
66372;BMP180;53168;51.146;17.120;2024-01-07T16:16:02;100534.20;;;-5.50
66372;BMP180;53168;51.146;17.120;2024-01-07T16:18:38;100532.80;;;-5.50
66372;BMP180;53168;51.146;17.120;2024-01-07T16:21:13;100536.00;;;-5.50
66372;BMP180;53168;51.146;17.120;2024-01-07T16:23:48;100535.20;;;-5.50
66372;BMP180;53168;51.146;17.120;2024-01-07T16:26:22;100546.40;;;-5.50
66372;BMP180;53168;51.146;17.120;2024-01-07T16:28:56;100544.20;;;-5.50
66372;BMP180;53168;51.146;17.120;2024-01-07T16:31:31;100548.00;;;-5.50
66372;BMP180;53168;51.146;17.120;2024-01-07T16:34:08;100548.80;;;-5.50
66372;BMP180;53168;51.146;17.120;2024-01-07T16:36:45;100553.00;;;-5.60
66372;BMP180;53168;51.146;17.120;2024-01-07T16:39:20;100552.80;;;-5.70
66372;BMP180;53168;51.146;17.120;2024-01-07T16:42:09;100559.40;;;-5.80
66372;BMP180;53168;51.146;17.120;2024-01-07T16:45:01;100560.40;;;-5.80
66372;BMP180;53168;51.146;17.120;2024-01-07T16:47:47;100559.40;;;-5.80
66372;BMP180;53168;51.146;17.120;2024-01-07T16:50:37;100555.40;;;-5.80
66372;BMP180;53168;51.146;17.120;2024-01-07T16:53:31;100564.20;;;-5.80
66372;BMP180;53168;51.146;17.120;2024-01-07T16:56:14;100567.20;;;-5.80
66372;BMP180;53168;51.146;17.120;2024-01-07T16:58:50;100573.60;;;-5.80
66372;BMP180;53168;51.146;17.120;2024-01-07T17:01:29;100581.00;;;-5.80
66372;BMP180;53168;51.146;17.120;2024-01-07T17:04:11;100582.40;;;-5.80
66372;BMP180;53168;51.146;17.120;2024-01-07T17:06:48;100591.80;;;-5.90
66372;BMP180;53168;51.146;17.120;2024-01-07T17:09:32;100589.60;;;-5.90
66372;BMP180;53168;51.146;17.120;2024-01-07T17:12:07;100596.60;;;-5.90
66372;BMP180;53168;51.146;17.120;2024-01-07T17:14:42;100601.00;;;-5.90
66372;BMP180;53168;51.146;17.120;2024-01-07T17:17:17;100591.60;;;-6.00
66372;BMP180;53168;51.146;17.120;2024-01-07T17:19:52;100587.20;;;-6.00
66372;BMP180;53168;51.146;17.120;2024-01-07T17:22:29;100589.80;;;-6.00
66372;BMP180;53168;51.146;17.120;2024-01-07T17:25:16;100591.00;;;-6.00
66372;BMP180;53168;51.146;17.120;2024-01-07T17:28:26;100592.40;;;-5.90
66372;BMP180;53168;51.146;17.120;2024-01-07T17:31:45;100593.80;;;-5.92
66372;BMP180;53168;51.146;17.120;2024-01-07T17:34:22;100604.80;;;-5.92
66372;BMP180;53168;51.146;17.120;2024-01-07T17:37:08;100602.60;;;-6.00
66372;BMP180;53168;51.146;17.120;2024-01-07T17:39:43;100612.60;;;-6.00
66372;BMP180;53168;51.146;17.120;2024-01-07T17:42:18;100620.40;;;-6.02
66372;BMP180;53168;51.146;17.120;2024-01-07T17:44:52;100618.00;;;-6.10
66372;BMP180;53168;51.146;17.120;2024-01-07T17:47:26;100623.80;;;-6.20
66372;BMP180;53168;51.146;17.120;2024-01-07T17:50:00;100621.80;;;-6.20
66372;BMP180;53168;51.146;17.120;2024-01-07T17:52:34;100633.60;;;-6.10
66372;BMP180;53168;51.146;17.120;2024-01-07T18:16:17;100666.00;;;-6.10
66372;BMP180;53168;51.146;17.120;2024-01-07T18:18:57;100673.80;;;-6.10
66372;BMP180;53168;51.146;17.120;2024-01-07T18:21:32;100675.40;;;-6.20
66372;BMP180;53168;51.146;17.120;2024-01-07T18:24:12;100678.40;;;-6.10
66372;BMP180;53168;51.146;17.120;2024-01-07T18:26:47;100682.80;;;-6.10
66372;BMP180;53168;51.146;17.120;2024-01-07T18:29:29;100685.20;;;-6.10
66372;BMP180;53168;51.146;17.120;2024-01-07T18:32:03;100685.40;;;-6.10
66372;BMP180;53168;51.146;17.120;2024-01-07T18:34:40;100688.40;;;-6.18
66372;BMP180;53168;51.146;17.120;2024-01-07T18:37:16;100688.60;;;-6.20
66372;BMP180;53168;51.146;17.120;2024-01-07T18:40:08;100696.40;;;-6.20
66372;BMP180;53168;51.146;17.120;2024-01-07T18:42:46;100698.00;;;-6.16
66372;BMP180;53168;51.146;17.120;2024-01-07T18:45:24;100699.80;;;-6.10
66372;BMP180;53168;51.146;17.120;2024-01-07T18:47:58;100699.20;;;-6.10
66372;BMP180;53168;51.146;17.120;2024-01-07T18:50:32;100701.40;;;-6.14
66372;BMP180;53168;51.146;17.120;2024-01-07T18:53:15;100702.40;;;-6.14
66372;BMP180;53168;51.146;17.120;2024-01-07T18:55:50;100705.60;;;-6.10
66372;BMP180;53168;51.146;17.120;2024-01-07T18:58:26;100709.40;;;-6.10
66372;BMP180;53168;51.146;17.120;2024-01-07T19:01:02;100705.00;;;-6.20
66372;BMP180;53168;51.146;17.120;2024-01-07T19:03:36;100699.80;;;-6.20
66372;BMP180;53168;51.146;17.120;2024-01-07T19:06:10;100707.20;;;-6.28
66372;BMP180;53168;51.146;17.120;2024-01-07T19:08:44;100705.60;;;-6.20
66372;BMP180;53168;51.146;17.120;2024-01-07T19:11:28;100707.80;;;-6.20
66372;BMP180;53168;51.146;17.120;2024-01-07T19:14:14;100703.00;;;-6.20
66372;BMP180;53168;51.146;17.120;2024-01-07T19:16:54;100698.40;;;-6.18
66372;BMP180;53168;51.146;17.120;2024-01-07T19:19:33;100697.20;;;-6.10
66372;BMP180;53168;51.146;17.120;2024-01-07T19:22:11;100703.60;;;-6.00
66372;BMP180;53168;51.146;17.120;2024-01-07T19:24:46;100706.00;;;-6.00
66372;BMP180;53168;51.146;17.120;2024-01-07T19:27:25;100704.80;;;-6.10
66372;BMP180;53168;51.146;17.120;2024-01-07T19:30:07;100705.80;;;-6.10
66372;BMP180;53168;51.146;17.120;2024-01-07T19:32:46;100707.40;;;-6.10
66372;BMP180;53168;51.146;17.120;2024-01-07T19:35:56;100711.60;;;-6.08
66372;BMP180;53168;51.146;17.120;2024-01-07T19:38:43;100711.80;;;-6.10
66372;BMP180;53168;51.146;17.120;2024-01-07T19:41:24;100712.00;;;-6.20
66372;BMP180;53168;51.146;17.120;2024-01-07T19:44:01;100715.20;;;-6.20
66372;BMP180;53168;51.146;17.120;2024-01-07T19:46:35;100709.40;;;-6.20
66372;BMP180;53168;51.146;17.120;2024-01-07T19:49:11;100711.20;;;-6.20
66372;BMP180;53168;51.146;17.120;2024-01-07T19:51:46;100710.00;;;-6.20
66372;BMP180;53168;51.146;17.120;2024-01-07T19:54:24;100712.00;;;-6.20
66372;BMP180;53168;51.146;17.120;2024-01-07T19:56:58;100721.80;;;-6.20
66372;BMP180;53168;51.146;17.120;2024-01-07T19:59:33;100718.60;;;-6.14
66372;BMP180;53168;51.146;17.120;2024-01-07T20:02:10;100714.80;;;-6.10
66372;BMP180;53168;51.146;17.120;2024-01-07T20:05:17;100715.20;;;-6.00
66372;BMP180;53168;51.146;17.120;2024-01-07T20:08:05;100729.40;;;-6.00
66372;BMP180;53168;51.146;17.120;2024-01-07T20:10:41;100739.40;;;-6.00